createdAt,value
2022-08-03T00:00:58.883Z,8.50
2022-08-03T00:03:22.665Z,7.15
2022-08-03T00:06:04.362Z,6.38
2022-08-03T00:08:28.830Z,8.65
2022-08-03T00:10:53.964Z,6.70
2022-08-03T00:13:19.962Z,10.43
2022-08-03T00:15:44.331Z,10.10
2022-08-03T00:18:08.392Z,5.97
2022-08-03T00:20:32.167Z,7.68
2022-08-03T00:22:55.933Z,12.95
2022-08-03T00:25:20.015Z,8.52
2022-08-03T00:27:45.287Z,9.70
2022-08-03T00:30:10.672Z,9.38
2022-08-03T00:32:34.436Z,7.43
2022-08-03T00:34:58.986Z,11.30
2022-08-03T00:37:22.958Z,8.10
2022-08-03T00:40:05.621Z,8.75
2022-08-03T00:42:29.396Z,5.82
2022-08-03T00:44:54.555Z,9.85
2022-08-03T00:47:18.227Z,7.15
2022-08-03T00:49:42.649Z,8.10
2022-08-03T00:52:07.448Z,8.27
2022-08-03T00:54:34.923Z,7.95
2022-08-03T00:56:59.590Z,12.00
2022-08-03T00:59:24.704Z,10.30
2022-08-03T01:01:50.201Z,6.53
2022-08-03T01:04:14.064Z,11.48
2022-08-03T01:06:47.800Z,10.10
2022-08-03T01:09:21.793Z,9.15
2022-08-03T01:11:59.871Z,8.35
2022-08-03T01:14:34.454Z,6.72
2022-08-03T01:17:06.930Z,7.35
2022-08-03T01:19:47.529Z,12.75
2022-08-03T01:22:45.640Z,9.25
2022-08-03T01:25:26.513Z,10.90
2022-08-03T01:28:07.721Z,5.88
2022-08-03T01:30:35.273Z,9.15
2022-08-03T01:33:05.501Z,9.25
2022-08-03T01:35:38.751Z,7.70
2022-08-03T01:38:07.472Z,8.98
2022-08-03T01:40:33.572Z,7.38
2022-08-03T01:43:00.089Z,8.90
2022-08-03T01:45:24.823Z,8.30
2022-08-03T01:47:51.340Z,8.27
2022-08-03T01:50:16.755Z,9.30
2022-08-03T01:52:43.668Z,11.15
2022-08-03T01:55:09.415Z,6.22
2022-08-03T01:57:33.205Z,7.75
2022-08-03T02:00:19.301Z,10.10
2022-08-03T02:02:45.501Z,8.02
2022-08-03T02:05:12.427Z,10.85
2022-08-03T02:07:37.868Z,9.27
2022-08-03T02:10:04.803Z,6.35
2022-08-03T02:12:31.604Z,7.85
2022-08-03T02:14:57.678Z,7.85
2022-08-03T02:17:39.899Z,9.82
2022-08-03T02:20:06.283Z,13.48
2022-08-03T02:22:32.355Z,8.82
2022-08-03T02:24:56.196Z,7.72
2022-08-03T02:27:23.538Z,6.03
2022-08-03T02:29:57.980Z,10.48
2022-08-03T02:32:26.889Z,9.60
2022-08-03T02:34:54.620Z,7.32
2022-08-03T02:37:21.176Z,11.23
2022-08-03T02:39:48.405Z,7.90
2022-08-03T02:42:16.171Z,8.68
2022-08-03T02:44:41.675Z,8.70
2022-08-03T02:47:11.764Z,6.93
2022-08-03T02:49:49.785Z,7.15
2022-08-03T02:52:17.139Z,9.25
2022-08-03T02:54:42.149Z,11.95
2022-08-03T02:57:09.772Z,7.65
2022-08-03T02:59:35.063Z,7.75
2022-08-03T03:02:01.772Z,7.80
2022-08-03T03:04:28.479Z,10.18
2022-08-03T03:06:57.245Z,9.55
2022-08-03T03:09:22.212Z,10.50
2022-08-03T03:11:46.373Z,7.63
2022-08-03T03:14:13.533Z,10.68
2022-08-03T03:16:38.723Z,8.40
2022-08-03T03:19:04.335Z,9.10
2022-08-03T03:21:29.263Z,9.50
2022-08-03T03:23:54.236Z,6.97
2022-08-03T03:26:18.561Z,9.85
2022-08-03T03:28:42.594Z,10.27
2022-08-03T03:31:08.646Z,8.02
2022-08-03T03:33:32.447Z,9.27
2022-08-03T03:35:56.680Z,13.45
2022-08-03T03:38:20.896Z,9.55
2022-08-03T03:40:44.948Z,19.10
2022-08-03T03:43:09.904Z,15.35
2022-08-03T03:45:36.165Z,12.10
2022-08-03T03:48:03.781Z,12.48
2022-08-03T03:50:27.779Z,17.25
2022-08-03T03:52:51.492Z,12.45
2022-08-03T03:55:18.618Z,35.53
2022-08-03T03:57:42.799Z,35.00
2022-08-03T04:00:08.663Z,36.45
2022-08-03T04:02:32.501Z,38.67
2022-08-03T04:05:14.892Z,27.02
2022-08-03T04:08:06.419Z,27.20
2022-08-03T04:10:48.665Z,21.13
2022-08-03T04:13:15.492Z,18.25
2022-08-03T04:15:41.219Z,18.60
2022-08-03T04:18:06.427Z,15.00
2022-08-03T04:20:34.142Z,15.18
2022-08-03T04:23:00.943Z,10.50
2022-08-03T04:25:30.603Z,10.05
2022-08-03T04:28:08.164Z,10.13
2022-08-03T04:30:47.601Z,9.75
2022-08-03T04:33:11.863Z,11.98
2022-08-03T04:36:02.301Z,8.20
2022-08-03T04:38:22.551Z,12.88
2022-08-03T04:40:48.227Z,10.35
2022-08-03T04:43:14.991Z,8.38
2022-08-03T04:45:39.435Z,8.52
2022-08-03T04:48:03.932Z,7.18
2022-08-03T04:50:29.160Z,11.10
2022-08-03T04:53:03.628Z,8.73
2022-08-03T04:55:28.758Z,9.52
2022-08-03T04:57:52.424Z,9.95
2022-08-03T05:00:17.961Z,13.32
2022-08-03T05:02:41.661Z,13.30
2022-08-03T05:05:05.859Z,12.68
2022-08-03T05:07:35.560Z,8.20
2022-08-03T05:10:02.891Z,11.75
2022-08-03T05:12:32.075Z,9.60
2022-08-03T05:14:56.575Z,16.48
2022-08-03T05:17:20.720Z,16.20
2022-08-03T05:19:44.500Z,14.35
2022-08-03T05:22:08.256Z,9.90
2022-08-03T05:24:32.014Z,12.32
2022-08-03T05:26:57.169Z,9.55
2022-08-03T05:29:21.043Z,13.57
2022-08-03T05:31:44.791Z,7.00
2022-08-03T05:34:08.543Z,11.45
2022-08-03T05:36:32.307Z,12.48
2022-08-03T05:38:59.553Z,12.30
2022-08-03T05:41:37.305Z,10.05
2022-08-03T05:44:02.860Z,12.77
2022-08-03T05:46:26.696Z,10.50
2022-08-03T05:48:50.592Z,10.93
2022-08-03T05:51:14.531Z,11.57
2022-08-03T05:53:38.516Z,10.52
2022-08-03T05:56:12.995Z,9.05
2022-08-03T05:58:39.289Z,10.77
2022-08-03T06:01:04.468Z,8.23
2022-08-03T06:03:28.669Z,7.97
2022-08-03T06:06:00.261Z,8.75
2022-08-03T06:08:24.581Z,7.22
2022-08-03T06:10:48.258Z,8.05
2022-08-03T06:13:11.975Z,6.30
2022-08-03T06:15:35.739Z,7.63
2022-08-03T06:18:02.360Z,6.95
2022-08-03T06:20:27.432Z,4.35
2022-08-03T06:23:00.904Z,3.78
2022-08-03T06:25:26.073Z,5.88
2022-08-03T06:27:49.851Z,5.53
2022-08-03T06:30:18.081Z,3.25
2022-08-03T06:32:44.504Z,4.43
2022-08-03T06:35:17.504Z,7.25
2022-08-03T06:37:45.843Z,4.65
2022-08-03T06:40:11.407Z,3.35
2022-08-03T06:42:37.683Z,4.38
2022-08-03T06:45:01.618Z,5.15
2022-08-03T06:47:25.309Z,3.67
2022-08-03T06:50:17.125Z,5.13
2022-08-03T06:52:38.528Z,3.65
2022-08-03T06:55:02.462Z,5.85
2022-08-03T06:57:26.584Z,4.45
2022-08-03T07:00:09.304Z,4.30
2022-08-03T07:02:34.017Z,4.78
2022-08-03T07:04:58.581Z,4.45
2022-08-03T07:07:22.295Z,3.05
2022-08-03T07:09:56.742Z,3.75
2022-08-03T07:12:21.715Z,3.90
2022-08-03T07:14:45.432Z,3.40
2022-08-03T07:17:11.928Z,4.72
2022-08-03T07:19:35.756Z,3.60
2022-08-03T07:22:04.215Z,4.40
2022-08-03T07:24:29.211Z,2.42
2022-08-03T07:26:54.422Z,3.53
2022-08-03T07:29:18.167Z,4.05
2022-08-03T07:31:42.239Z,4.32
2022-08-03T07:34:06.001Z,2.92
2022-08-03T07:36:29.775Z,5.13
2022-08-03T07:38:53.423Z,9.55
2022-08-03T07:41:17.244Z,4.55
2022-08-03T07:43:42.353Z,7.18
2022-08-03T07:46:06.136Z,4.20
2022-08-03T07:48:29.968Z,5.93
2022-08-03T07:50:54.027Z,2.38
2022-08-03T07:53:17.797Z,3.45
2022-08-03T07:55:41.601Z,3.65
2022-08-03T07:58:07.734Z,6.25
2022-08-03T08:00:34.049Z,6.10
2022-08-03T08:02:57.859Z,4.30
2022-08-03T08:05:22.240Z,5.15
2022-08-03T08:07:50.850Z,3.45
2022-08-03T08:10:15.556Z,3.40
2022-08-03T08:12:40.372Z,3.83
2022-08-03T08:15:04.716Z,4.80
2022-08-03T08:17:29.982Z,4.53
2022-08-03T08:19:53.834Z,4.35
2022-08-03T08:22:17.855Z,2.53
2022-08-03T08:24:48.519Z,2.28
2022-08-03T08:27:14.642Z,3.58
2022-08-03T08:29:38.379Z,5.18
2022-08-03T08:32:13.308Z,2.35
2022-08-03T08:34:38.588Z,4.38
2022-08-03T08:37:02.312Z,2.20
2022-08-03T08:39:26.072Z,2.65
2022-08-03T08:41:53.452Z,1.83
2022-08-03T08:44:17.217Z,1.75
2022-08-03T08:46:41.714Z,2.28
2022-08-03T08:49:05.771Z,2.72
2022-08-03T08:51:59.569Z,3.35
2022-08-03T08:54:22.561Z,2.35
2022-08-03T08:56:46.885Z,4.50
2022-08-03T08:59:10.728Z,2.95
2022-08-03T09:01:34.471Z,5.25
2022-08-03T09:03:58.223Z,3.22
2022-08-03T09:06:22.149Z,2.47
2022-08-03T09:08:47.380Z,1.80
2022-08-03T09:11:12.188Z,2.40
2022-08-03T09:13:36.819Z,3.95
2022-08-03T09:16:15.725Z,2.55
2022-08-03T09:18:40.531Z,6.45
2022-08-03T09:21:30.568Z,7.03
2022-08-03T09:24:02.790Z,3.65
2022-08-03T09:26:29.995Z,2.58
2022-08-03T09:29:04.694Z,4.22
2022-08-03T09:31:36.024Z,3.08
2022-08-03T09:34:01.186Z,3.60
2022-08-03T09:36:40.572Z,3.03
2022-08-03T09:39:07.781Z,3.58
2022-08-03T09:41:31.469Z,3.80
2022-08-03T09:43:57.201Z,2.55
2022-08-03T09:46:20.879Z,4.60
2022-08-03T09:48:44.628Z,3.55
2022-08-03T09:51:12.991Z,3.92
2022-08-03T09:53:59.255Z,2.00
2022-08-03T09:56:41.256Z,3.83
2022-08-03T09:59:05.100Z,2.63
2022-08-03T10:01:35.031Z,3.20
2022-08-03T10:04:04.040Z,1.67
2022-08-03T10:06:29.162Z,4.07
2022-08-03T10:09:08.908Z,3.70
2022-08-03T10:11:40.904Z,1.70
2022-08-03T10:14:07.547Z,1.63
2022-08-03T10:16:37.504Z,3.38
2022-08-03T10:19:01.265Z,2.45
2022-08-03T10:21:25.072Z,7.85
2022-08-03T10:23:49.842Z,1.60
2022-08-03T10:26:18.217Z,3.58
2022-08-03T10:28:50.904Z,2.15
2022-08-03T10:31:15.476Z,2.80
2022-08-03T10:33:50.217Z,3.47
2022-08-03T10:36:17.528Z,1.88
2022-08-03T10:38:46.741Z,2.50
2022-08-03T10:41:11.411Z,2.22
2022-08-03T10:43:49.082Z,1.65
2022-08-03T10:46:12.892Z,1.88
2022-08-03T10:48:37.957Z,3.45
2022-08-03T10:51:01.960Z,3.70
2022-08-03T10:53:40.385Z,2.95
2022-08-03T10:56:43.739Z,4.68
2022-08-03T10:59:08.979Z,2.47
2022-08-03T11:01:59.525Z,1.70
2022-08-03T11:04:26.661Z,1.75
2022-08-03T11:07:20.451Z,4.18
2022-08-03T11:09:47.664Z,1.70
2022-08-03T11:12:28.449Z,2.78
2022-08-03T11:14:59.499Z,4.72
2022-08-03T11:17:23.548Z,1.48
2022-08-03T11:19:57.422Z,3.67
2022-08-03T11:22:26.176Z,2.78
2022-08-03T11:25:02.579Z,5.28
2022-08-03T11:27:31.938Z,3.08
2022-08-03T11:30:01.616Z,2.63
2022-08-03T11:33:03.330Z,3.38
2022-08-03T11:35:30.301Z,2.83
2022-08-03T11:38:13.517Z,5.07
2022-08-03T11:40:46.844Z,1.83
2022-08-03T11:43:12.593Z,2.30
2022-08-03T11:45:38.606Z,2.83
2022-08-03T11:48:16.129Z,5.95
2022-08-03T11:50:39.903Z,2.45
2022-08-03T11:53:03.661Z,2.60
2022-08-03T11:55:30.640Z,1.80
2022-08-03T11:59:14.313Z,3.15
2022-08-03T12:00:45.557Z,2.15
2022-08-03T12:03:12.267Z,3.17
2022-08-03T12:05:51.777Z,2.80
2022-08-03T12:08:18.573Z,2.75
2022-08-03T12:10:48.557Z,4.22
2022-08-03T12:14:26.991Z,1.90
2022-08-03T12:15:59.348Z,4.85
2022-08-03T12:18:24.881Z,3.28
2022-08-03T12:20:49.506Z,1.52
2022-08-03T12:23:14.516Z,1.48
2022-08-03T12:25:40.580Z,1.55
2022-08-03T12:28:36.037Z,2.97
2022-08-03T12:31:06.499Z,3.60
2022-08-03T12:33:30.337Z,3.17
2022-08-03T12:36:07.485Z,3.70
2022-08-03T12:38:31.876Z,4.22
2022-08-03T12:41:08.718Z,2.90
2022-08-03T12:43:39.404Z,3.10
2022-08-03T12:46:14.152Z,4.15
2022-08-03T12:48:38.061Z,5.30
2022-08-03T12:51:11.072Z,3.95
2022-08-03T12:53:35.539Z,1.60
2022-08-03T12:56:05.914Z,1.58
2022-08-03T12:58:36.013Z,2.08
2022-08-03T13:00:59.991Z,4.82
2022-08-03T13:03:39.250Z,2.10
2022-08-03T13:06:12.804Z,3.30
2022-08-03T13:08:36.684Z,1.88
2022-08-03T13:11:00.401Z,2.00
2022-08-03T13:13:41.872Z,2.95
2022-08-03T13:16:06.104Z,3.65
2022-08-03T13:18:31.209Z,2.17
2022-08-03T13:20:56.684Z,3.78
2022-08-03T13:23:22.666Z,2.65
2022-08-03T13:25:55.269Z,3.38
2022-08-03T13:28:20.182Z,3.42
2022-08-03T13:30:43.980Z,3.35
2022-08-03T13:33:07.794Z,2.15
2022-08-03T13:35:32.913Z,2.53
2022-08-03T13:37:56.712Z,3.80
2022-08-03T13:40:23.673Z,2.35
2022-08-03T13:42:53.679Z,1.85
2022-08-03T13:45:17.485Z,5.07
2022-08-03T13:47:41.241Z,3.08
2022-08-03T13:50:05.737Z,1.98
2022-08-03T13:52:32.533Z,4.55
2022-08-03T13:54:56.255Z,4.70
2022-08-03T13:58:04.084Z,3.38
2022-08-03T14:00:04.050Z,3.15
2022-08-03T14:02:27.824Z,5.28
2022-08-03T14:04:51.666Z,2.05
2022-08-03T14:07:15.789Z,3.67
2022-08-03T14:09:40.960Z,3.70
2022-08-03T14:12:08.132Z,2.50
2022-08-03T14:14:32.702Z,4.03
2022-08-03T14:16:56.404Z,2.72
2022-08-03T14:19:21.355Z,2.20
2022-08-03T14:21:52.750Z,5.53
2022-08-03T14:24:30.061Z,1.80
2022-08-03T14:27:04.493Z,3.63
2022-08-03T14:29:31.111Z,1.88
2022-08-03T14:32:09.598Z,4.70
2022-08-03T14:34:34.476Z,4.47
2022-08-03T14:36:58.236Z,2.72
2022-08-03T14:39:22.084Z,3.10
2022-08-03T14:41:45.933Z,3.58
2022-08-03T14:44:11.140Z,6.45
2022-08-03T14:46:34.812Z,2.17
2022-08-03T14:50:29.164Z,1.70
2022-08-03T14:51:53.437Z,2.95
2022-08-03T14:54:17.863Z,2.22
2022-08-03T14:56:42.399Z,4.70
2022-08-03T14:59:06.188Z,2.65
2022-08-03T15:02:02.999Z,3.22
2022-08-03T15:04:15.089Z,4.88
2022-08-03T15:06:38.848Z,2.25
2022-08-03T15:11:46.380Z,3.15
2022-08-03T15:14:10.183Z,2.10
2022-08-03T15:16:38.947Z,4.28
2022-08-03T15:19:02.705Z,2.00
2022-08-03T15:21:47.245Z,5.03
2022-08-03T15:24:11.473Z,3.92
2022-08-03T15:26:39.389Z,3.10
2022-08-03T15:29:05.364Z,2.50
2022-08-03T15:31:29.019Z,4.57
2022-08-03T15:33:54.332Z,3.55
2022-08-03T15:36:18.460Z,4.10
2022-08-03T15:38:42.227Z,3.67
2022-08-03T15:41:05.908Z,4.85
2022-08-03T15:43:38.262Z,3.78
2022-08-03T15:46:28.402Z,2.75
2022-08-03T15:48:46.981Z,2.60
2022-08-03T15:51:12.240Z,2.42
2022-08-03T15:53:36.564Z,5.72
2022-08-03T15:56:00.899Z,3.45
2022-08-03T15:59:04.552Z,3.25
2022-08-03T16:01:09.138Z,4.68
2022-08-03T16:03:34.504Z,4.22
2022-08-03T16:05:58.217Z,2.33
2022-08-03T16:08:23.348Z,2.33
2022-08-03T16:10:48.563Z,4.30
2022-08-03T16:13:14.060Z,2.28
2022-08-03T16:15:39.016Z,2.58
2022-08-03T16:18:02.878Z,2.05
2022-08-03T16:20:29.222Z,2.20
2022-08-03T16:22:57.548Z,4.43
2022-08-03T16:25:23.191Z,2.28
2022-08-03T16:28:06.815Z,2.28
2022-08-03T16:30:31.152Z,3.13
2022-08-03T16:32:58.218Z,4.03
2022-08-03T16:35:23.352Z,2.92
2022-08-03T16:37:56.122Z,2.10
2022-08-03T16:40:22.196Z,2.28
2022-08-03T16:42:45.919Z,4.65
2022-08-03T16:45:11.379Z,3.00
2022-08-03T16:47:35.228Z,5.10
2022-08-03T16:50:00.497Z,3.85
2022-08-03T16:52:24.975Z,2.88
2022-08-03T16:54:53.224Z,2.38
2022-08-03T16:57:56.281Z,6.18
2022-08-03T17:00:02.793Z,3.47
2022-08-03T17:02:28.618Z,3.05
2022-08-03T17:04:53.378Z,2.05
2022-08-03T17:07:17.353Z,4.30
2022-08-03T17:09:41.121Z,3.03
2022-08-03T17:12:05.253Z,2.00
2022-08-03T17:14:32.480Z,2.40
2022-08-03T17:17:01.484Z,6.93
2022-08-03T17:19:26.586Z,2.38
2022-08-03T17:21:58.899Z,2.42
2022-08-03T17:24:30.184Z,2.88
2022-08-03T17:26:56.705Z,6.40
2022-08-03T17:29:25.152Z,3.05
2022-08-03T17:31:52.435Z,5.95
2022-08-03T17:34:16.836Z,2.85
2022-08-03T17:37:03.169Z,3.70
2022-08-03T17:39:48.335Z,5.78
2022-08-03T17:42:29.142Z,2.75
2022-08-03T17:44:57.244Z,2.92
2022-08-03T17:47:22.581Z,3.40
2022-08-03T17:49:53.366Z,3.65
2022-08-03T17:52:27.682Z,4.00
2022-08-03T17:55:57.481Z,6.28
2022-08-03T17:58:03.212Z,4.90
2022-08-03T18:00:45.364Z,7.30
2022-08-03T18:03:24.221Z,6.07
2022-08-03T18:06:11.304Z,4.88
2022-08-03T18:08:37.087Z,7.47
2022-08-03T18:11:09.673Z,4.25
2022-08-03T18:13:44.792Z,5.03
2022-08-03T18:16:27.765Z,3.15
2022-08-03T18:18:55.155Z,3.55
2022-08-03T18:21:19.275Z,3.47
2022-08-03T18:23:43.795Z,2.88
2022-08-03T18:26:12.325Z,5.28
2022-08-03T18:28:38.434Z,4.30
2022-08-03T18:31:05.842Z,4.88
2022-08-03T18:34:19.924Z,6.47
2022-08-03T18:36:22.107Z,22.60
2022-08-03T18:38:55.554Z,7.88
2022-08-03T18:41:33.204Z,5.88
2022-08-03T18:44:07.901Z,7.00
2022-08-03T18:46:47.661Z,8.07
2022-08-03T18:49:19.050Z,6.18
2022-08-03T18:51:47.721Z,5.88
2022-08-03T18:54:57.851Z,3.97
2022-08-03T18:57:04.032Z,4.30
2022-08-03T18:59:32.456Z,5.65
2022-08-03T19:02:09.213Z,6.15
2022-08-03T19:04:36.956Z,4.10
2022-08-03T19:07:09.298Z,3.53
2022-08-03T19:09:45.075Z,6.07
2022-08-03T19:12:30.825Z,4.72
2022-08-03T19:15:05.333Z,4.38
2022-08-03T19:17:31.524Z,6.00
2022-08-03T19:19:56.047Z,6.55
2022-08-03T19:22:23.038Z,3.45
2022-08-03T19:24:49.109Z,4.05
2022-08-03T19:27:16.018Z,4.90
2022-08-03T19:29:59.064Z,4.15
2022-08-03T19:32:28.795Z,4.25
2022-08-03T19:34:52.945Z,22.65
2022-08-03T19:37:16.901Z,15.70
2022-08-03T19:39:43.688Z,49.45
2022-08-03T19:42:22.781Z,36.38
2022-08-03T19:45:13.812Z,93.30
2022-08-03T19:47:43.092Z,72.25
2022-08-03T19:50:13.776Z,76.45
2022-08-03T19:52:42.370Z,40.97
2022-08-03T19:55:12.183Z,52.35
2022-08-03T19:57:39.124Z,40.65
2022-08-03T20:00:06.681Z,23.27
2022-08-03T20:02:30.461Z,23.00
2022-08-03T20:04:54.927Z,15.63
2022-08-03T20:07:22.793Z,15.00
2022-08-03T20:09:48.285Z,13.25
2022-08-03T20:12:26.657Z,7.18
2022-08-03T20:14:52.856Z,8.80
2022-08-03T20:17:20.978Z,10.55
2022-08-03T20:19:45.145Z,8.05
2022-08-03T20:22:14.473Z,9.55
2022-08-03T20:24:42.742Z,8.07
2022-08-03T20:27:12.493Z,16.20
2022-08-03T20:32:30.852Z,32.67
2022-08-03T20:34:56.231Z,19.30
2022-08-03T20:37:22.439Z,9.95
2022-08-03T20:39:48.273Z,8.27
2022-08-03T20:42:13.663Z,9.55
2022-08-03T20:44:47.129Z,7.07
2022-08-03T20:47:30.119Z,13.70
2022-08-03T20:49:54.832Z,6.38
2022-08-03T20:52:19.204Z,9.30
2022-08-03T20:54:43.843Z,6.95
2022-08-03T20:57:10.166Z,5.85
2022-08-03T20:59:50.154Z,7.90
2022-08-03T21:04:57.738Z,4.47
2022-08-03T21:07:23.186Z,7.28
2022-08-03T21:09:52.894Z,5.38
2022-08-03T21:12:30.163Z,5.72
2022-08-03T21:13:07.089Z,9.10
2022-08-03T21:15:03.299Z,7.15
2022-08-03T21:17:40.630Z,5.72
2022-08-03T21:20:12.590Z,7.43
2022-08-03T21:22:39.393Z,6.70
2022-08-03T21:25:08.530Z,6.47
2022-08-03T21:27:33.423Z,4.80
2022-08-03T21:29:57.282Z,5.18
2022-08-03T21:32:32.509Z,6.65
2022-08-03T21:34:59.160Z,4.97
2022-08-03T21:37:23.230Z,5.25
2022-08-03T21:39:50.502Z,5.72
2022-08-03T21:42:15.040Z,7.05
2022-08-03T21:44:39.006Z,7.00
2022-08-03T21:47:04.513Z,5.78
2022-08-03T21:50:05.216Z,5.25
2022-08-03T21:52:17.468Z,5.53
2022-08-03T21:54:44.762Z,8.25
2022-08-03T21:57:19.436Z,6.18
2022-08-03T21:59:53.824Z,6.10
2022-08-03T22:02:22.842Z,6.65
2022-08-03T22:04:55.428Z,7.47
2022-08-03T22:07:23.848Z,7.07
2022-08-03T22:09:51.407Z,7.05
2022-08-03T22:12:15.504Z,6.07
2022-08-03T22:14:39.336Z,6.20
2022-08-03T22:17:06.318Z,7.03
2022-08-03T22:19:31.124Z,5.93
2022-08-03T22:21:55.590Z,7.18
2022-08-03T22:24:25.160Z,6.53
2022-08-03T22:27:03.148Z,6.35
2022-08-03T22:29:26.923Z,7.00
2022-08-03T22:31:58.315Z,6.30
2022-08-03T22:34:26.786Z,6.78
2022-08-03T22:36:50.976Z,7.55
2022-08-03T22:39:25.475Z,6.45
2022-08-03T22:41:51.698Z,7.18
2022-08-03T22:44:15.516Z,7.95
2022-08-03T22:46:40.683Z,7.45
2022-08-03T22:49:05.216Z,6.03
2022-08-03T22:51:30.260Z,6.10
2022-08-03T22:53:54.355Z,7.00
2022-08-03T22:56:18.229Z,7.68
2022-08-03T22:58:43.473Z,7.28
2022-08-03T23:01:09.841Z,7.13
2022-08-03T23:03:59.902Z,6.50
2022-08-03T23:06:25.378Z,8.52
2022-08-03T23:08:51.164Z,8.63
2022-08-03T23:11:18.131Z,9.57
2022-08-03T23:13:43.824Z,6.90
2022-08-03T23:16:10.212Z,7.30
2022-08-03T23:18:38.473Z,7.65
2022-08-03T23:21:09.254Z,7.55
2022-08-03T23:23:44.163Z,8.60
2022-08-03T23:26:09.487Z,11.20
2022-08-03T23:28:33.817Z,9.50
2022-08-03T23:31:00.649Z,10.73
2022-08-03T23:33:24.507Z,8.95
2022-08-03T23:36:22.701Z,11.55
2022-08-03T23:38:42.440Z,8.43
2022-08-03T23:41:08.128Z,10.27
2022-08-03T23:43:44.411Z,11.18
2022-08-03T23:46:19.823Z,8.43
2022-08-03T23:48:43.596Z,8.63
2022-08-03T23:51:15.740Z,11.63
2022-08-03T23:53:50.314Z,10.75
2022-08-03T23:56:25.777Z,12.68
2022-08-03T23:59:02.636Z,9.55
